sensor_id;sensor_type;location;lat;lon;timestamp;temperature;humidity
4183;DHT22;2105;52.300;9.182;2022-11-15T04:28:58;12.40;1.00
4183;DHT22;2105;52.300;9.182;2022-11-15T04:31:42;12.40;1.00
4183;DHT22;2105;52.300;9.182;2022-11-15T04:34:09;12.30;1.00
4183;DHT22;2105;52.300;9.182;2022-11-15T04:36:36;12.30;99.90
4183;DHT22;2105;52.300;9.182;2022-11-15T04:39:21;12.30;99.90
4183;DHT22;2105;52.300;9.182;2022-11-15T04:41:48;12.30;1.00
4183;DHT22;2105;52.300;9.182;2022-11-15T04:44:15;12.30;1.00
4183;DHT22;2105;52.300;9.182;2022-11-15T04:46:42;12.30;1.00
4183;DHT22;2105;52.300;9.182;2022-11-15T04:49:09;12.20;99.90
4183;DHT22;2105;52.300;9.182;2022-11-15T04:51:35;12.20;99.90
4183;DHT22;2105;52.300;9.182;2022-11-15T04:54:02;12.10;99.90
4183;DHT22;2105;52.300;9.182;2022-11-15T04:56:31;12.10;1.00
4183;DHT22;2105;52.300;9.182;2022-11-15T04:58:57;12.00;1.00
4183;DHT22;2105;52.300;9.182;2022-11-15T05:01:24;12.00;99.90
4183;DHT22;2105;52.300;9.182;2022-11-15T05:03:51;11.90;1.00
4183;DHT22;2105;52.300;9.182;2022-11-15T05:06:35;11.90;99.90
4183;DHT22;2105;52.300;9.182;2022-11-15T05:09:02;11.80;1.00
4183;DHT22;2105;52.300;9.182;2022-11-15T05:11:33;11.80;1.00
4183;DHT22;2105;52.300;9.182;2022-11-15T05:14:00;11.80;56.20
4183;DHT22;2105;52.300;9.182;2022-11-15T05:16:27;11.80;1.00
4183;DHT22;2105;52.300;9.182;2022-11-15T05:18:54;11.80;1.00
4183;DHT22;2105;52.300;9.182;2022-11-15T05:21:20;11.80;1.00
4183;DHT22;2105;52.300;9.182;2022-11-15T05:23:47;11.80;1.00
4183;DHT22;2105;52.300;9.182;2022-11-15T05:26:16;11.80;1.00
4183;DHT22;2105;52.300;9.182;2022-11-15T05:28:44;11.90;1.00
4183;DHT22;2105;52.300;9.182;2022-11-15T05:31:13;11.90;99.90
4183;DHT22;2105;52.300;9.182;2022-11-15T05:33:41;11.90;94.90
4183;DHT22;2105;52.300;9.182;2022-11-15T05:36:13;11.90;67.40
4183;DHT22;2105;52.300;9.182;2022-11-15T05:38:42;11.90;95.80
4183;DHT22;2105;52.300;9.182;2022-11-15T05:41:10;11.80;99.90
4183;DHT22;2105;52.300;9.182;2022-11-15T05:43:39;11.80;1.00
4183;DHT22;2105;52.300;9.182;2022-11-15T05:46:08;11.90;1.00
4183;DHT22;2105;52.300;9.182;2022-11-15T05:48:36;11.90;1.00
4183;DHT22;2105;52.300;9.182;2022-11-15T05:51:05;11.90;99.90
4183;DHT22;2105;52.300;9.182;2022-11-15T05:53:33;12.00;99.90
4183;DHT22;2105;52.300;9.182;2022-11-15T05:56:02;12.00;1.00
4183;DHT22;2105;52.300;9.182;2022-11-15T05:58:30;12.10;1.00
4183;DHT22;2105;52.300;9.182;2022-11-15T06:00:57;12.00;1.00
4183;DHT22;2105;52.300;9.182;2022-11-15T06:03:26;12.10;99.90
4183;DHT22;2105;52.300;9.182;2022-11-15T06:05:53;12.10;99.90
4183;DHT22;2105;52.300;9.182;2022-11-15T06:08:20;12.20;87.20
4183;DHT22;2105;52.300;9.182;2022-11-15T06:10:47;12.20;1.00
4183;DHT22;2105;52.300;9.182;2022-11-15T06:13:14;12.20;1.00
4183;DHT22;2105;52.300;9.182;2022-11-15T06:15:40;12.20;1.00
4183;DHT22;2105;52.300;9.182;2022-11-15T06:18:07;12.20;99.90
4183;DHT22;2105;52.300;9.182;2022-11-15T06:20:35;12.30;99.90
4183;DHT22;2105;52.300;9.182;2022-11-15T06:23:03;12.30;1.00
4183;DHT22;2105;52.300;9.182;2022-11-15T06:25:31;12.40;1.00
4183;DHT22;2105;52.300;9.182;2022-11-15T06:27:58;12.40;1.00
4183;DHT22;2105;52.300;9.182;2022-11-15T06:30:26;12.40;99.90
4183;DHT22;2105;52.300;9.182;2022-11-15T06:32:59;12.50;1.00
4183;DHT22;2105;52.300;9.182;2022-11-15T06:35:26;12.50;1.00
4183;DHT22;2105;52.300;9.182;2022-11-15T06:37:55;12.50;1.00
4183;DHT22;2105;52.300;9.182;2022-11-15T06:40:22;12.50;99.90
4183;DHT22;2105;52.300;9.182;2022-11-15T06:42:48;12.60;99.90
4183;DHT22;2105;52.300;9.182;2022-11-15T06:45:15;12.50;99.90
4183;DHT22;2105;52.300;9.182;2022-11-15T06:47:46;12.50;97.90
4183;DHT22;2105;52.300;9.182;2022-11-15T06:50:13;12.50;1.00
4183;DHT22;2105;52.300;9.182;2022-11-15T06:52:40;12.50;1.00
4183;DHT22;2105;52.300;9.182;2022-11-15T06:55:08;12.50;1.00
4183;DHT22;2105;52.300;9.182;2022-11-15T06:57:35;12.50;1.00
4183;DHT22;2105;52.300;9.182;2022-11-15T07:00:03;12.40;1.00
4183;DHT22;2105;52.300;9.182;2022-11-15T07:02:30;12.40;1.00
4183;DHT22;2105;52.300;9.182;2022-11-15T07:04:57;12.40;15.90
4183;DHT22;2105;52.300;9.182;2022-11-15T07:07:24;12.40;99.90
4183;DHT22;2105;52.300;9.182;2022-11-15T07:09:50;12.40;99.90
4183;DHT22;2105;52.300;9.182;2022-11-15T07:12:19;12.30;99.90
4183;DHT22;2105;52.300;9.182;2022-11-15T07:14:45;12.30;99.90
4183;DHT22;2105;52.300;9.182;2022-11-15T07:17:12;12.30;99.90
4183;DHT22;2105;52.300;9.182;2022-11-15T07:19:39;12.30;99.90
4183;DHT22;2105;52.300;9.182;2022-11-15T07:22:06;12.40;1.00
4183;DHT22;2105;52.300;9.182;2022-11-15T07:24:32;12.50;1.00
4183;DHT22;2105;52.300;9.182;2022-11-15T07:26:59;12.50;99.90
4183;DHT22;2105;52.300;9.182;2022-11-15T07:29:27;12.60;99.90
4183;DHT22;2105;52.300;9.182;2022-11-15T07:31:54;12.60;1.00
4183;DHT22;2105;52.300;9.182;2022-11-15T07:34:21;12.50;1.00
4183;DHT22;2105;52.300;9.182;2022-11-15T07:36:49;12.50;1.00
4183;DHT22;2105;52.300;9.182;2022-11-15T07:39:15;12.50;1.00
4183;DHT22;2105;52.300;9.182;2022-11-15T07:41:42;12.60;99.30
4183;DHT22;2105;52.300;9.182;2022-11-15T07:44:10;12.80;99.90
4183;DHT22;2105;52.300;9.182;2022-11-15T07:46:38;13.00;99.90
4183;DHT22;2105;52.300;9.182;2022-11-15T07:49:05;13.00;99.90
4183;DHT22;2105;52.300;9.182;2022-11-15T07:51:32;12.80;1.00
4183;DHT22;2105;52.300;9.182;2022-11-15T07:53:58;12.70;99.40
4183;DHT22;2105;52.300;9.182;2022-11-15T07:56:25;12.50;1.00
4183;DHT22;2105;52.300;9.182;2022-11-15T07:58:52;12.50;1.00
4183;DHT22;2105;52.300;9.182;2022-11-15T08:01:19;12.60;99.90
4183;DHT22;2105;52.300;9.182;2022-11-15T08:03:48;12.80;99.90
4183;DHT22;2105;52.300;9.182;2022-11-15T08:06:14;12.90;1.00
4183;DHT22;2105;52.300;9.182;2022-11-15T08:08:41;12.70;99.90
4183;DHT22;2105;52.300;9.182;2022-11-15T08:11:08;12.80;99.90
4183;DHT22;2105;52.300;9.182;2022-11-15T08:13:35;12.90;44.40
4183;DHT22;2105;52.300;9.182;2022-11-15T08:16:02;12.80;1.00
4183;DHT22;2105;52.300;9.182;2022-11-15T08:18:30;12.70;99.90
4183;DHT22;2105;52.300;9.182;2022-11-15T08:21:00;12.60;99.90
4183;DHT22;2105;52.300;9.182;2022-11-15T08:23:27;12.60;1.00
4183;DHT22;2105;52.300;9.182;2022-11-15T08:25:59;12.60;1.00
4183;DHT22;2105;52.300;9.182;2022-11-15T08:28:26;12.50;99.90
4183;DHT22;2105;52.300;9.182;2022-11-15T08:30:53;12.50;64.50
4183;DHT22;2105;52.300;9.182;2022-11-15T08:33:20;12.50;1.00
4183;DHT22;2105;52.300;9.182;2022-11-15T08:35:46;12.60;99.90
4183;DHT22;2105;52.300;9.182;2022-11-15T08:38:15;12.60;99.90
4183;DHT22;2105;52.300;9.182;2022-11-15T08:40:41;12.50;99.90
4183;DHT22;2105;52.300;9.182;2022-11-15T08:43:08;12.60;99.90
4183;DHT22;2105;52.300;9.182;2022-11-15T08:45:35;12.60;99.90
4183;DHT22;2105;52.300;9.182;2022-11-15T08:48:03;12.70;1.00
4183;DHT22;2105;52.300;9.182;2022-11-15T08:50:30;12.70;1.00
4183;DHT22;2105;52.300;9.182;2022-11-15T08:52:57;12.90;99.90
4183;DHT22;2105;52.300;9.182;2022-11-15T08:55:25;13.00;1.00
4183;DHT22;2105;52.300;9.182;2022-11-15T08:57:52;13.10;99.90
4183;DHT22;2105;52.300;9.182;2022-11-15T09:00:19;13.20;99.90
4183;DHT22;2105;52.300;9.182;2022-11-15T09:02:46;13.30;1.00
4183;DHT22;2105;52.300;9.182;2022-11-15T09:05:13;13.30;1.00
4183;DHT22;2105;52.300;9.182;2022-11-15T09:07:40;13.40;1.00
4183;DHT22;2105;52.300;9.182;2022-11-15T09:10:08;13.50;1.00
4183;DHT22;2105;52.300;9.182;2022-11-15T09:12:36;13.70;99.90
4183;DHT22;2105;52.300;9.182;2022-11-15T09:15:04;13.90;1.00
4183;DHT22;2105;52.300;9.182;2022-11-15T09:17:31;13.90;1.00
4183;DHT22;2105;52.300;9.182;2022-11-15T09:19:58;14.00;99.90
4183;DHT22;2105;52.300;9.182;2022-11-15T09:22:24;14.00;99.90
4183;DHT22;2105;52.300;9.182;2022-11-15T09:24:51;13.90;99.90
4183;DHT22;2105;52.300;9.182;2022-11-15T09:27:18;14.00;99.90
4183;DHT22;2105;52.300;9.182;2022-11-15T09:29:46;14.20;99.90
4183;DHT22;2105;52.300;9.182;2022-11-15T09:32:13;14.40;1.00
4183;DHT22;2105;52.300;9.182;2022-11-15T09:34:39;14.30;1.00
4183;DHT22;2105;52.300;9.182;2022-11-15T09:37:06;14.40;1.00
4183;DHT22;2105;52.300;9.182;2022-11-15T09:39:33;14.40;1.00
4183;DHT22;2105;52.300;9.182;2022-11-15T09:42:21;14.30;1.00
4183;DHT22;2105;52.300;9.182;2022-11-15T09:45:03;14.30;1.00
4183;DHT22;2105;52.300;9.182;2022-11-15T09:47:51;14.40;1.00
4183;DHT22;2105;52.300;9.182;2022-11-15T09:50:30;14.40;1.00
4183;DHT22;2105;52.300;9.182;2022-11-15T09:52:57;14.40;1.00
4183;DHT22;2105;52.300;9.182;2022-11-15T09:55:31;14.30;1.00
4183;DHT22;2105;52.300;9.182;2022-11-15T09:58:05;14.20;1.00
4183;DHT22;2105;52.300;9.182;2022-11-15T10:00:38;14.30;1.00
4183;DHT22;2105;52.300;9.182;2022-11-15T10:03:13;14.40;1.00
4183;DHT22;2105;52.300;9.182;2022-11-15T10:05:43;14.50;99.90
4183;DHT22;2105;52.300;9.182;2022-11-15T10:08:35;14.60;99.90
4183;DHT22;2105;52.300;9.182;2022-11-15T10:11:06;14.80;99.90
4183;DHT22;2105;52.300;9.182;2022-11-15T10:13:35;14.90;6.30
4183;DHT22;2105;52.300;9.182;2022-11-15T10:16:13;15.00;1.00
4183;DHT22;2105;52.300;9.182;2022-11-15T10:18:51;15.20;1.00
4183;DHT22;2105;52.300;9.182;2022-11-15T10:21:24;15.20;1.00
4183;DHT22;2105;52.300;9.182;2022-11-15T10:23:53;15.30;99.90
4183;DHT22;2105;52.300;9.182;2022-11-15T10:26:21;15.20;1.00
4183;DHT22;2105;52.300;9.182;2022-11-15T10:28:47;15.00;1.00
4183;DHT22;2105;52.300;9.182;2022-11-15T10:31:27;15.00;1.00
4183;DHT22;2105;52.300;9.182;2022-11-15T10:34:05;15.20;1.00
4183;DHT22;2105;52.300;9.182;2022-11-15T10:36:37;15.30;99.90
4183;DHT22;2105;52.300;9.182;2022-11-15T10:39:04;15.20;99.90
4183;DHT22;2105;52.300;9.182;2022-11-15T10:41:39;15.20;99.90
4183;DHT22;2105;52.300;9.182;2022-11-15T10:44:19;15.10;99.90
4183;DHT22;2105;52.300;9.182;2022-11-15T10:46:49;15.10;99.90
4183;DHT22;2105;52.300;9.182;2022-11-15T10:49:30;15.00;99.90
4183;DHT22;2105;52.300;9.182;2022-11-15T10:52:00;14.90;99.90
4183;DHT22;2105;52.300;9.182;2022-11-15T10:54:30;14.90;99.90
4183;DHT22;2105;52.300;9.182;2022-11-15T10:57:10;14.90;99.90
4183;DHT22;2105;52.300;9.182;2022-11-15T10:59:38;15.00;99.90
4183;DHT22;2105;52.300;9.182;2022-11-15T11:02:28;15.10;99.90
4183;DHT22;2105;52.300;9.182;2022-11-15T11:04:55;15.20;99.90
4183;DHT22;2105;52.300;9.182;2022-11-15T11:07:24;15.20;99.90
4183;DHT22;2105;52.300;9.182;2022-11-15T11:09:58;15.30;99.90
4183;DHT22;2105;52.300;9.182;2022-11-15T11:12:30;15.30;99.90
4183;DHT22;2105;52.300;9.182;2022-11-15T11:14:58;15.40;99.90
4183;DHT22;2105;52.300;9.182;2022-11-15T11:17:39;15.40;99.90
4183;DHT22;2105;52.300;9.182;2022-11-15T11:20:16;15.30;99.90
4183;DHT22;2105;52.300;9.182;2022-11-15T11:22:55;15.60;99.90
4183;DHT22;2105;52.300;9.182;2022-11-15T11:25:30;15.70;93.50
4183;DHT22;2105;52.300;9.182;2022-11-15T11:28:10;15.70;99.90
4183;DHT22;2105;52.300;9.182;2022-11-15T11:30:49;15.50;90.80
4183;DHT22;2105;52.300;9.182;2022-11-15T11:33:23;15.40;99.90
4183;DHT22;2105;52.300;9.182;2022-11-15T11:36:02;15.40;99.90
4183;DHT22;2105;52.300;9.182;2022-11-15T11:38:53;15.50;99.90
4183;DHT22;2105;52.300;9.182;2022-11-15T11:41:43;15.60;99.90
4183;DHT22;2105;52.300;9.182;2022-11-15T11:44:28;15.70;99.90
4183;DHT22;2105;52.300;9.182;2022-11-15T11:47:00;16.10;99.80
4183;DHT22;2105;52.300;9.182;2022-11-15T11:49:33;16.20;18.40
4183;DHT22;2105;52.300;9.182;2022-11-15T11:52:05;16.20;14.70
4183;DHT22;2105;52.300;9.182;2022-11-15T11:54:40;16.10;6.90
4183;DHT22;2105;52.300;9.182;2022-11-15T11:57:13;16.10;72.80
4183;DHT22;2105;52.300;9.182;2022-11-15T11:59:45;16.10;54.00
4183;DHT22;2105;52.300;9.182;2022-11-15T12:02:18;16.00;75.20
4183;DHT22;2105;52.300;9.182;2022-11-15T12:04:51;15.90;73.70
4183;DHT22;2105;52.300;9.182;2022-11-15T12:07:23;15.90;92.40
4183;DHT22;2105;52.300;9.182;2022-11-15T12:09:55;15.80;95.20
4183;DHT22;2105;52.300;9.182;2022-11-15T12:12:29;15.70;99.90
4183;DHT22;2105;52.300;9.182;2022-11-15T12:15:00;15.70;99.90
4183;DHT22;2105;52.300;9.182;2022-11-15T12:17:30;16.00;99.90
4183;DHT22;2105;52.300;9.182;2022-11-15T12:20:02;16.10;99.90
4183;DHT22;2105;52.300;9.182;2022-11-15T12:22:36;16.30;99.90
4183;DHT22;2105;52.300;9.182;2022-11-15T12:25:14;16.50;97.20
4183;DHT22;2105;52.300;9.182;2022-11-15T12:27:48;16.70;23.60
4183;DHT22;2105;52.300;9.182;2022-11-15T12:30:19;16.80;19.90
4183;DHT22;2105;52.300;9.182;2022-11-15T12:32:51;16.70;27.00
4183;DHT22;2105;52.300;9.182;2022-11-15T12:35:25;16.70;1.00
4183;DHT22;2105;52.300;9.182;2022-11-15T12:37:53;16.60;1.00
4183;DHT22;2105;52.300;9.182;2022-11-15T12:40:25;16.80;1.00
4183;DHT22;2105;52.300;9.182;2022-11-15T12:43:04;16.80;1.00
4183;DHT22;2105;52.300;9.182;2022-11-15T12:45:33;16.80;1.00
4183;DHT22;2105;52.300;9.182;2022-11-15T12:51:06;16.60;1.00
4183;DHT22;2105;52.300;9.182;2022-11-15T12:53:33;16.60;1.00
4183;DHT22;2105;52.300;9.182;2022-11-15T12:56:20;16.70;1.00
4183;DHT22;2105;52.300;9.182;2022-11-15T12:58:49;16.80;1.00
4183;DHT22;2105;52.300;9.182;2022-11-15T13:04:31;16.20;47.50
4183;DHT22;2105;52.300;9.182;2022-11-15T13:07:01;15.90;42.40
4183;DHT22;2105;52.300;9.182;2022-11-15T13:09:51;15.80;96.90
4183;DHT22;2105;52.300;9.182;2022-11-15T13:12:48;16.20;84.10
4183;DHT22;2105;52.300;9.182;2022-11-15T13:15:37;16.10;31.70
4183;DHT22;2105;52.300;9.182;2022-11-15T13:18:26;15.90;90.00
4183;DHT22;2105;52.300;9.182;2022-11-15T13:20:54;16.10;68.00
4183;DHT22;2105;52.300;9.182;2022-11-15T13:23:22;16.20;70.70
4183;DHT22;2105;52.300;9.182;2022-11-15T13:26:06;16.30;38.90
4183;DHT22;2105;52.300;9.182;2022-11-15T13:28:37;16.30;49.80
4183;DHT22;2105;52.300;9.182;2022-11-15T13:34:01;16.20;43.20
4183;DHT22;2105;52.300;9.182;2022-11-15T13:36:30;15.70;99.90
4183;DHT22;2105;52.300;9.182;2022-11-15T13:39:03;15.30;99.90
4183;DHT22;2105;52.300;9.182;2022-11-15T13:41:32;15.10;99.90
4183;DHT22;2105;52.300;9.182;2022-11-15T13:44:00;15.00;99.90
4183;DHT22;2105;52.300;9.182;2022-11-15T13:46:28;14.90;1.00
4183;DHT22;2105;52.300;9.182;2022-11-15T13:48:58;14.90;1.00
4183;DHT22;2105;52.300;9.182;2022-11-15T13:51:34;14.80;1.00
4183;DHT22;2105;52.300;9.182;2022-11-15T13:54:12;14.80;1.00
4183;DHT22;2105;52.300;9.182;2022-11-15T13:56:43;14.70;1.00
4183;DHT22;2105;52.300;9.182;2022-11-15T13:59:10;14.50;1.00
4183;DHT22;2105;52.300;9.182;2022-11-15T14:01:42;14.50;1.00
4183;DHT22;2105;52.300;9.182;2022-11-15T14:04:11;14.50;1.00
4183;DHT22;2105;52.300;9.182;2022-11-15T14:06:44;14.40;1.00
4183;DHT22;2105;52.300;9.182;2022-11-15T14:09:29;14.30;1.00
4183;DHT22;2105;52.300;9.182;2022-11-15T14:11:59;14.20;1.00
4183;DHT22;2105;52.300;9.182;2022-11-15T14:14:27;14.20;72.10
4183;DHT22;2105;52.300;9.182;2022-11-15T14:16:55;14.30;72.00
4183;DHT22;2105;52.300;9.182;2022-11-15T14:19:37;14.30;1.00
4183;DHT22;2105;52.300;9.182;2022-11-15T14:22:11;14.20;1.00
4183;DHT22;2105;52.300;9.182;2022-11-15T14:24:41;14.20;99.90
4183;DHT22;2105;52.300;9.182;2022-11-15T14:27:25;14.30;99.90
4183;DHT22;2105;52.300;9.182;2022-11-15T14:29:53;14.20;99.90
4183;DHT22;2105;52.300;9.182;2022-11-15T14:32:21;14.20;1.00
4183;DHT22;2105;52.300;9.182;2022-11-15T14:34:49;14.10;1.00
4183;DHT22;2105;52.300;9.182;2022-11-15T14:37:22;14.10;1.00
4183;DHT22;2105;52.300;9.182;2022-11-15T14:39:51;14.10;1.00
4183;DHT22;2105;52.300;9.182;2022-11-15T14:42:19;14.10;1.00
4183;DHT22;2105;52.300;9.182;2022-11-15T14:44:46;14.10;1.00
4183;DHT22;2105;52.300;9.182;2022-11-15T14:47:13;14.10;1.00
4183;DHT22;2105;52.300;9.182;2022-11-15T14:49:40;14.00;1.00
4183;DHT22;2105;52.300;9.182;2022-11-15T14:52:27;14.00;1.00
4183;DHT22;2105;52.300;9.182;2022-11-15T14:54:56;14.10;1.00
4183;DHT22;2105;52.300;9.182;2022-11-15T14:57:23;14.00;1.00
4183;DHT22;2105;52.300;9.182;2022-11-15T14:59:50;14.00;1.00
4183;DHT22;2105;52.300;9.182;2022-11-15T15:02:19;14.00;1.00
4183;DHT22;2105;52.300;9.182;2022-11-15T15:04:46;14.00;1.00
4183;DHT22;2105;52.300;9.182;2022-11-15T15:07:13;14.00;99.90
4183;DHT22;2105;52.300;9.182;2022-11-15T15:09:40;14.00;99.90
4183;DHT22;2105;52.300;9.182;2022-11-15T15:12:15;14.00;99.90
4183;DHT22;2105;52.300;9.182;2022-11-15T15:14:43;13.90;99.90
4183;DHT22;2105;52.300;9.182;2022-11-15T15:17:10;13.90;1.00
4183;DHT22;2105;52.300;9.182;2022-11-15T15:19:36;13.90;1.00
4183;DHT22;2105;52.300;9.182;2022-11-15T15:22:04;13.90;1.00
4183;DHT22;2105;52.300;9.182;2022-11-15T15:24:31;13.90;1.00
4183;DHT22;2105;52.300;9.182;2022-11-15T15:26:58;13.90;1.00
4183;DHT22;2105;52.300;9.182;2022-11-15T15:29:26;13.80;1.00
4183;DHT22;2105;52.300;9.182;2022-11-15T15:31:53;13.90;1.00
4183;DHT22;2105;52.300;9.182;2022-11-15T15:34:19;13.90;1.00
4183;DHT22;2105;52.300;9.182;2022-11-15T15:36:46;13.90;1.00
4183;DHT22;2105;52.300;9.182;2022-11-15T15:39:13;13.90;1.00
4183;DHT22;2105;52.300;9.182;2022-11-15T15:41:39;13.90;1.00
4183;DHT22;2105;52.300;9.182;2022-11-15T15:44:06;13.90;1.00
4183;DHT22;2105;52.300;9.182;2022-11-15T15:46:34;13.90;1.00
4183;DHT22;2105;52.300;9.182;2022-11-15T15:49:01;13.80;1.00
4183;DHT22;2105;52.300;9.182;2022-11-15T15:51:28;13.80;1.00
4183;DHT22;2105;52.300;9.182;2022-11-15T15:53:55;13.80;1.00
4183;DHT22;2105;52.300;9.182;2022-11-15T15:56:23;13.80;1.00
4183;DHT22;2105;52.300;9.182;2022-11-15T15:58:50;13.70;1.00
4183;DHT22;2105;52.300;9.182;2022-11-15T16:01:18;13.60;99.90
4183;DHT22;2105;52.300;9.182;2022-11-15T16:03:46;13.60;99.90
4183;DHT22;2105;52.300;9.182;2022-11-15T16:06:36;13.50;99.90
4183;DHT22;2105;52.300;9.182;2022-11-15T16:09:04;13.40;1.00
4183;DHT22;2105;52.300;9.182;2022-11-15T16:11:31;13.40;1.00
4183;DHT22;2105;52.300;9.182;2022-11-15T16:13:59;13.40;1.00
4183;DHT22;2105;52.300;9.182;2022-11-15T16:16:26;13.30;1.00
4183;DHT22;2105;52.300;9.182;2022-11-15T16:18:54;13.30;1.00
4183;DHT22;2105;52.300;9.182;2022-11-15T16:21:21;13.20;1.00
4183;DHT22;2105;52.300;9.182;2022-11-15T16:23:48;13.20;99.90
4183;DHT22;2105;52.300;9.182;2022-11-15T16:26:19;13.20;99.90
4183;DHT22;2105;52.300;9.182;2022-11-15T16:28:46;13.20;99.90
4183;DHT22;2105;52.300;9.182;2022-11-15T16:31:13;13.20;99.90
4183;DHT22;2105;52.300;9.182;2022-11-15T16:33:42;13.20;99.90
4183;DHT22;2105;52.300;9.182;2022-11-15T16:36:20;13.30;99.90
4183;DHT22;2105;52.300;9.182;2022-11-15T16:38:47;13.30;24.90
4183;DHT22;2105;52.300;9.182;2022-11-15T16:41:13;13.20;99.90
4183;DHT22;2105;52.300;9.182;2022-11-15T16:43:43;13.20;99.90
4183;DHT22;2105;52.300;9.182;2022-11-15T16:46:16;13.10;1.00
4183;DHT22;2105;52.300;9.182;2022-11-15T16:48:44;13.10;99.90
4183;DHT22;2105;52.300;9.182;2022-11-15T16:51:11;13.10;1.00
4183;DHT22;2105;52.300;9.182;2022-11-15T16:53:39;13.00;1.00
4183;DHT22;2105;52.300;9.182;2022-11-15T16:56:19;12.90;1.00
4183;DHT22;2105;52.300;9.182;2022-11-15T16:58:48;12.80;99.90
4183;DHT22;2105;52.300;9.182;2022-11-15T17:01:17;12.70;1.00
4183;DHT22;2105;52.300;9.182;2022-11-15T17:03:45;12.60;1.00
4183;DHT22;2105;52.300;9.182;2022-11-15T17:06:13;12.50;1.00
4183;DHT22;2105;52.300;9.182;2022-11-15T17:08:41;12.50;35.80
4183;DHT22;2105;52.300;9.182;2022-11-15T17:11:08;12.50;69.30
4183;DHT22;2105;52.300;9.182;2022-11-15T17:13:35;12.30;99.90
4183;DHT22;2105;52.300;9.182;2022-11-15T17:16:03;12.20;1.00
4183;DHT22;2105;52.300;9.182;2022-11-15T17:18:30;12.20;1.00
4183;DHT22;2105;52.300;9.182;2022-11-15T17:20:57;12.20;99.90
4183;DHT22;2105;52.300;9.182;2022-11-15T17:23:23;12.20;1.00
4183;DHT22;2105;52.300;9.182;2022-11-15T17:25:59;12.10;1.00
4183;DHT22;2105;52.300;9.182;2022-11-15T17:28:28;12.20;1.00
4183;DHT22;2105;52.300;9.182;2022-11-15T17:30:55;12.10;1.00
4183;DHT22;2105;52.300;9.182;2022-11-15T17:33:21;12.20;68.40
4183;DHT22;2105;52.300;9.182;2022-11-15T17:35:55;12.30;1.00
4183;DHT22;2105;52.300;9.182;2022-11-15T17:38:22;12.20;1.00
4183;DHT22;2105;52.300;9.182;2022-11-15T17:40:48;12.20;1.00
4183;DHT22;2105;52.300;9.182;2022-11-15T17:43:26;12.30;1.00
4183;DHT22;2105;52.300;9.182;2022-11-15T17:45:53;12.40;99.90
4183;DHT22;2105;52.300;9.182;2022-11-15T17:48:20;12.50;1.00
4183;DHT22;2105;52.300;9.182;2022-11-15T17:50:55;12.60;99.90
4183;DHT22;2105;52.300;9.182;2022-11-15T17:53:22;12.70;1.00
4183;DHT22;2105;52.300;9.182;2022-11-15T17:55:49;12.70;1.00
4183;DHT22;2105;52.300;9.182;2022-11-15T17:58:15;12.60;1.00
4183;DHT22;2105;52.300;9.182;2022-11-15T18:00:44;12.50;1.00
4183;DHT22;2105;52.300;9.182;2022-11-15T18:03:11;12.50;1.00
4183;DHT22;2105;52.300;9.182;2022-11-15T18:05:38;12.50;1.00
4183;DHT22;2105;52.300;9.182;2022-11-15T18:08:08;12.50;1.00
4183;DHT22;2105;52.300;9.182;2022-11-15T18:10:35;12.40;53.30
4183;DHT22;2105;52.300;9.182;2022-11-15T18:13:02;12.30;99.90
4183;DHT22;2105;52.300;9.182;2022-11-15T18:15:28;12.30;99.90
4183;DHT22;2105;52.300;9.182;2022-11-15T18:17:56;12.30;1.00
4183;DHT22;2105;52.300;9.182;2022-11-15T18:20:23;12.20;1.00
4183;DHT22;2105;52.300;9.182;2022-11-15T18:22:51;12.30;1.00
4183;DHT22;2105;52.300;9.182;2022-11-15T18:25:18;12.30;99.90
4183;DHT22;2105;52.300;9.182;2022-11-15T18:27:45;12.40;99.90
4183;DHT22;2105;52.300;9.182;2022-11-15T18:30:13;12.40;1.00
4183;DHT22;2105;52.300;9.182;2022-11-15T18:32:40;12.50;1.00
4183;DHT22;2105;52.300;9.182;2022-11-15T18:35:08;12.60;1.00
4183;DHT22;2105;52.300;9.182;2022-11-15T18:37:35;12.60;1.00
4183;DHT22;2105;52.300;9.182;2022-11-15T18:40:03;12.60;1.00
4183;DHT22;2105;52.300;9.182;2022-11-15T18:42:29;12.60;99.90
4183;DHT22;2105;52.300;9.182;2022-11-15T18:44:57;12.60;99.90
4183;DHT22;2105;52.300;9.182;2022-11-15T18:47:24;12.60;99.90
4183;DHT22;2105;52.300;9.182;2022-11-15T18:49:51;12.60;99.90
4183;DHT22;2105;52.300;9.182;2022-11-15T18:52:19;12.60;99.90
4183;DHT22;2105;52.300;9.182;2022-11-15T18:54:47;12.60;99.90
4183;DHT22;2105;52.300;9.182;2022-11-15T18:57:14;12.70;99.90
4183;DHT22;2105;52.300;9.182;2022-11-15T18:59:40;12.80;99.90
4183;DHT22;2105;52.300;9.182;2022-11-15T19:02:09;12.80;32.40
4183;DHT22;2105;52.300;9.182;2022-11-15T19:04:37;12.80;1.00
4183;DHT22;2105;52.300;9.182;2022-11-15T19:07:04;12.90;1.00
4183;DHT22;2105;52.300;9.182;2022-11-15T19:09:32;12.90;1.00
4183;DHT22;2105;52.300;9.182;2022-11-15T19:11:59;13.00;1.00
4183;DHT22;2105;52.300;9.182;2022-11-15T19:14:26;13.10;1.00
4183;DHT22;2105;52.300;9.182;2022-11-15T19:16:53;13.20;1.00
4183;DHT22;2105;52.300;9.182;2022-11-15T19:19:22;13.20;99.90
4183;DHT22;2105;52.300;9.182;2022-11-15T19:21:49;13.30;99.90
4183;DHT22;2105;52.300;9.182;2022-11-15T19:24:16;13.30;99.90
4183;DHT22;2105;52.300;9.182;2022-11-15T19:26:44;13.30;99.90
4183;DHT22;2105;52.300;9.182;2022-11-15T19:29:11;13.30;99.90
4183;DHT22;2105;52.300;9.182;2022-11-15T19:31:39;13.30;99.90
4183;DHT22;2105;52.300;9.182;2022-11-15T19:34:06;13.30;99.90
4183;DHT22;2105;52.300;9.182;2022-11-15T19:36:34;13.40;99.90
4183;DHT22;2105;52.300;9.182;2022-11-15T19:39:05;13.30;99.90
4183;DHT22;2105;52.300;9.182;2022-11-15T19:41:33;13.40;99.90
4183;DHT22;2105;52.300;9.182;2022-11-15T19:44:04;13.40;99.90
4183;DHT22;2105;52.300;9.182;2022-11-15T19:46:30;13.40;99.90
4183;DHT22;2105;52.300;9.182;2022-11-15T19:48:57;13.40;46.50
4183;DHT22;2105;52.300;9.182;2022-11-15T19:51:26;13.50;59.50
4183;DHT22;2105;52.300;9.182;2022-11-15T19:53:56;13.50;17.20
4183;DHT22;2105;52.300;9.182;2022-11-15T19:56:23;13.50;1.00
4183;DHT22;2105;52.300;9.182;2022-11-15T19:58:51;13.50;1.70
4183;DHT22;2105;52.300;9.182;2022-11-15T20:01:21;13.50;1.00
4183;DHT22;2105;52.300;9.182;2022-11-15T20:03:49;13.60;1.00
4183;DHT22;2105;52.300;9.182;2022-11-15T20:06:20;13.60;1.00
4183;DHT22;2105;52.300;9.182;2022-11-15T20:08:48;13.60;1.00
4183;DHT22;2105;52.300;9.182;2022-11-15T20:11:15;13.60;1.00
4183;DHT22;2105;52.300;9.182;2022-11-15T20:13:42;13.60;1.00
4183;DHT22;2105;52.300;9.182;2022-11-15T20:16:14;13.60;1.00
4183;DHT22;2105;52.300;9.182;2022-11-15T20:18:42;13.60;1.00
4183;DHT22;2105;52.300;9.182;2022-11-15T20:21:09;13.50;1.00
4183;DHT22;2105;52.300;9.182;2022-11-15T20:23:36;13.50;1.00
4183;DHT22;2105;52.300;9.182;2022-11-15T20:26:04;13.50;1.00
4183;DHT22;2105;52.300;9.182;2022-11-15T20:28:31;13.50;1.00
4183;DHT22;2105;52.300;9.182;2022-11-15T20:30:59;13.50;1.00
4183;DHT22;2105;52.300;9.182;2022-11-15T20:33:26;13.50;1.00
4183;DHT22;2105;52.300;9.182;2022-11-15T20:35:55;13.50;1.00
4183;DHT22;2105;52.300;9.182;2022-11-15T20:38:22;13.50;1.00
4183;DHT22;2105;52.300;9.182;2022-11-15T20:40:49;13.40;1.00
4183;DHT22;2105;52.300;9.182;2022-11-15T20:43:18;13.40;1.00
4183;DHT22;2105;52.300;9.182;2022-11-15T20:45:45;13.30;1.00
4183;DHT22;2105;52.300;9.182;2022-11-15T20:48:13;13.30;1.00
4183;DHT22;2105;52.300;9.182;2022-11-15T20:50:41;13.30;10.20
4183;DHT22;2105;52.300;9.182;2022-11-15T20:53:11;13.30;1.00
4183;DHT22;2105;52.300;9.182;2022-11-15T20:55:38;13.20;2.90
4183;DHT22;2105;52.300;9.182;2022-11-15T20:58:06;13.20;1.00
4183;DHT22;2105;52.300;9.182;2022-11-15T21:00:33;13.30;1.00
4183;DHT22;2105;52.300;9.182;2022-11-15T21:03:01;13.20;21.40